sensor_id;sensor_type;location;lat;lon;timestamp;temperature;humidity
5786;DHT22;2919;48.630;9.000;2023-04-29T00:01:08;11.50;99.90
5786;DHT22;2919;48.630;9.000;2023-04-29T00:03:34;11.40;99.90
5786;DHT22;2919;48.630;9.000;2023-04-29T00:06:00;11.40;99.90
5786;DHT22;2919;48.630;9.000;2023-04-29T00:08:26;11.40;99.90
5786;DHT22;2919;48.630;9.000;2023-04-29T00:10:52;11.60;99.90
5786;DHT22;2919;48.630;9.000;2023-04-29T00:13:17;11.50;99.90
5786;DHT22;2919;48.630;9.000;2023-04-29T00:15:43;11.50;99.90
5786;DHT22;2919;48.630;9.000;2023-04-29T00:18:09;11.50;99.90
5786;DHT22;2919;48.630;9.000;2023-04-29T00:20:35;11.50;99.90
5786;DHT22;2919;48.630;9.000;2023-04-29T00:23:02;11.50;99.90
5786;DHT22;2919;48.630;9.000;2023-04-29T00:25:28;11.50;99.90
5786;DHT22;2919;48.630;9.000;2023-04-29T00:27:54;11.50;99.90
5786;DHT22;2919;48.630;9.000;2023-04-29T00:30:19;11.40;99.90
5786;DHT22;2919;48.630;9.000;2023-04-29T00:32:45;11.30;99.90
5786;DHT22;2919;48.630;9.000;2023-04-29T00:35:11;11.40;99.90
5786;DHT22;2919;48.630;9.000;2023-04-29T00:37:36;11.40;99.90
5786;DHT22;2919;48.630;9.000;2023-04-29T00:40:02;11.40;99.90
5786;DHT22;2919;48.630;9.000;2023-04-29T00:42:30;11.40;99.90
5786;DHT22;2919;48.630;9.000;2023-04-29T00:44:57;11.30;99.90
5786;DHT22;2919;48.630;9.000;2023-04-29T00:47:23;11.30;99.90
5786;DHT22;2919;48.630;9.000;2023-04-29T00:49:49;11.30;99.90
5786;DHT22;2919;48.630;9.000;2023-04-29T00:52:15;11.20;99.90
5786;DHT22;2919;48.630;9.000;2023-04-29T00:54:42;11.20;99.90
5786;DHT22;2919;48.630;9.000;2023-04-29T00:57:08;11.20;99.90
5786;DHT22;2919;48.630;9.000;2023-04-29T00:59:34;11.20;99.90
5786;DHT22;2919;48.630;9.000;2023-04-29T01:02:01;11.20;99.90
5786;DHT22;2919;48.630;9.000;2023-04-29T01:04:31;11.20;99.90
5786;DHT22;2919;48.630;9.000;2023-04-29T01:10:02;11.10;99.90
5786;DHT22;2919;48.630;9.000;2023-04-29T01:15:21;10.90;99.90
5786;DHT22;2919;48.630;9.000;2023-04-29T01:20:20;10.70;99.90
5786;DHT22;2919;48.630;9.000;2023-04-29T01:22:46;10.60;99.90
5786;DHT22;2919;48.630;9.000;2023-04-29T01:25:13;10.60;99.90
5786;DHT22;2919;48.630;9.000;2023-04-29T01:27:52;10.70;99.90
5786;DHT22;2919;48.630;9.000;2023-04-29T01:30:44;10.70;99.90
5786;DHT22;2919;48.630;9.000;2023-04-29T01:33:32;10.70;99.90
5786;DHT22;2919;48.630;9.000;2023-04-29T01:44:54;10.70;99.90
5786;DHT22;2919;48.630;9.000;2023-04-29T01:47:21;10.70;99.90
5786;DHT22;2919;48.630;9.000;2023-04-29T01:49:48;10.50;99.90
5786;DHT22;2919;48.630;9.000;2023-04-29T01:52:14;10.50;99.90
5786;DHT22;2919;48.630;9.000;2023-04-29T01:54:39;10.40;99.90
5786;DHT22;2919;48.630;9.000;2023-04-29T01:57:05;10.30;99.90
5786;DHT22;2919;48.630;9.000;2023-04-29T01:59:30;10.30;99.90
5786;DHT22;2919;48.630;9.000;2023-04-29T02:01:56;10.30;99.90
5786;DHT22;2919;48.630;9.000;2023-04-29T02:04:23;10.20;99.90
5786;DHT22;2919;48.630;9.000;2023-04-29T02:06:49;10.20;99.90
5786;DHT22;2919;48.630;9.000;2023-04-29T02:09:17;10.20;99.90
5786;DHT22;2919;48.630;9.000;2023-04-29T02:11:42;10.10;99.90
5786;DHT22;2919;48.630;9.000;2023-04-29T02:14:08;10.10;99.90
5786;DHT22;2919;48.630;9.000;2023-04-29T02:16:34;10.00;99.90
5786;DHT22;2919;48.630;9.000;2023-04-29T02:18:59;10.00;99.90
5786;DHT22;2919;48.630;9.000;2023-04-29T02:21:25;9.90;99.90
5786;DHT22;2919;48.630;9.000;2023-04-29T02:23:51;9.90;99.90
5786;DHT22;2919;48.630;9.000;2023-04-29T02:26:18;9.80;99.90
5786;DHT22;2919;48.630;9.000;2023-04-29T02:28:44;9.80;99.90
5786;DHT22;2919;48.630;9.000;2023-04-29T02:31:10;9.70;99.90
5786;DHT22;2919;48.630;9.000;2023-04-29T02:33:36;9.70;99.90
5786;DHT22;2919;48.630;9.000;2023-04-29T02:36:02;9.60;99.90
5786;DHT22;2919;48.630;9.000;2023-04-29T02:38:28;9.60;99.90
5786;DHT22;2919;48.630;9.000;2023-04-29T02:40:53;9.50;99.90
5786;DHT22;2919;48.630;9.000;2023-04-29T02:43:19;9.40;99.90
5786;DHT22;2919;48.630;9.000;2023-04-29T02:45:44;9.40;99.90
5786;DHT22;2919;48.630;9.000;2023-04-29T02:48:10;9.40;99.90
5786;DHT22;2919;48.630;9.000;2023-04-29T02:50:36;9.30;99.90
5786;DHT22;2919;48.630;9.000;2023-04-29T02:53:01;9.30;99.90
5786;DHT22;2919;48.630;9.000;2023-04-29T02:55:27;9.30;99.90
5786;DHT22;2919;48.630;9.000;2023-04-29T02:57:52;9.30;99.90
5786;DHT22;2919;48.630;9.000;2023-04-29T03:00:18;9.30;99.90
5786;DHT22;2919;48.630;9.000;2023-04-29T03:02:44;9.30;99.90
5786;DHT22;2919;48.630;9.000;2023-04-29T03:05:10;9.30;99.90
5786;DHT22;2919;48.630;9.000;2023-04-29T03:07:36;9.20;99.90
5786;DHT22;2919;48.630;9.000;2023-04-29T03:10:01;9.20;99.90
5786;DHT22;2919;48.630;9.000;2023-04-29T03:12:27;9.20;99.90
5786;DHT22;2919;48.630;9.000;2023-04-29T03:14:52;9.10;99.90
5786;DHT22;2919;48.630;9.000;2023-04-29T03:17:18;9.20;99.90
5786;DHT22;2919;48.630;9.000;2023-04-29T03:19:44;9.10;99.90
5786;DHT22;2919;48.630;9.000;2023-04-29T03:22:09;9.10;99.90
5786;DHT22;2919;48.630;9.000;2023-04-29T03:24:36;9.10;99.90
5786;DHT22;2919;48.630;9.000;2023-04-29T03:27:02;9.00;99.90
5786;DHT22;2919;48.630;9.000;2023-04-29T03:29:29;9.10;99.90
5786;DHT22;2919;48.630;9.000;2023-04-29T03:31:55;9.00;99.90
5786;DHT22;2919;48.630;9.000;2023-04-29T03:34:21;9.00;99.90
5786;DHT22;2919;48.630;9.000;2023-04-29T03:36:47;9.00;99.90
5786;DHT22;2919;48.630;9.000;2023-04-29T03:39:13;8.80;99.90
5786;DHT22;2919;48.630;9.000;2023-04-29T03:41:38;8.90;99.90
5786;DHT22;2919;48.630;9.000;2023-04-29T03:44:04;8.90;99.90
5786;DHT22;2919;48.630;9.000;2023-04-29T03:46:30;8.80;99.90
5786;DHT22;2919;48.630;9.000;2023-04-29T03:48:56;8.80;99.90
5786;DHT22;2919;48.630;9.000;2023-04-29T03:51:23;8.80;99.90
5786;DHT22;2919;48.630;9.000;2023-04-29T03:53:48;8.80;99.90
5786;DHT22;2919;48.630;9.000;2023-04-29T03:56:14;8.70;99.90
5786;DHT22;2919;48.630;9.000;2023-04-29T03:58:40;8.70;99.90
5786;DHT22;2919;48.630;9.000;2023-04-29T04:01:06;8.70;99.90
5786;DHT22;2919;48.630;9.000;2023-04-29T04:03:31;8.80;99.90
5786;DHT22;2919;48.630;9.000;2023-04-29T04:05:57;8.80;99.90
5786;DHT22;2919;48.630;9.000;2023-04-29T04:08:23;8.80;99.90
5786;DHT22;2919;48.630;9.000;2023-04-29T04:10:48;8.80;99.90
5786;DHT22;2919;48.630;9.000;2023-04-29T04:13:14;8.70;99.90
5786;DHT22;2919;48.630;9.000;2023-04-29T04:15:40;8.80;99.90
5786;DHT22;2919;48.630;9.000;2023-04-29T04:18:06;8.80;99.90
5786;DHT22;2919;48.630;9.000;2023-04-29T04:20:32;8.70;99.90
5786;DHT22;2919;48.630;9.000;2023-04-29T04:23:00;8.70;99.90
5786;DHT22;2919;48.630;9.000;2023-04-29T04:25:26;8.60;99.90
5786;DHT22;2919;48.630;9.000;2023-04-29T04:27:52;8.70;99.90
5786;DHT22;2919;48.630;9.000;2023-04-29T04:30:18;8.60;99.90
5786;DHT22;2919;48.630;9.000;2023-04-29T04:32:44;8.60;99.90
5786;DHT22;2919;48.630;9.000;2023-04-29T04:35:10;8.50;99.90
5786;DHT22;2919;48.630;9.000;2023-04-29T04:37:37;8.50;99.90
5786;DHT22;2919;48.630;9.000;2023-04-29T04:40:03;8.40;99.90
5786;DHT22;2919;48.630;9.000;2023-04-29T04:42:29;8.50;99.90
5786;DHT22;2919;48.630;9.000;2023-04-29T04:44:54;8.50;99.90
5786;DHT22;2919;48.630;9.000;2023-04-29T04:47:20;8.50;99.90
5786;DHT22;2919;48.630;9.000;2023-04-29T04:49:45;8.50;99.90
5786;DHT22;2919;48.630;9.000;2023-04-29T04:52:11;8.60;99.90
5786;DHT22;2919;48.630;9.000;2023-04-29T04:54:37;8.60;99.90
5786;DHT22;2919;48.630;9.000;2023-04-29T04:57:02;8.70;99.90
5786;DHT22;2919;48.630;9.000;2023-04-29T04:59:30;8.70;99.90
5786;DHT22;2919;48.630;9.000;2023-04-29T05:01:56;8.70;99.90
5786;DHT22;2919;48.630;9.000;2023-04-29T05:04:21;8.80;99.90
5786;DHT22;2919;48.630;9.000;2023-04-29T05:06:47;8.80;99.90
5786;DHT22;2919;48.630;9.000;2023-04-29T05:09:13;8.80;99.90
5786;DHT22;2919;48.630;9.000;2023-04-29T05:11:38;8.90;99.90
5786;DHT22;2919;48.630;9.000;2023-04-29T05:14:04;8.90;99.90
5786;DHT22;2919;48.630;9.000;2023-04-29T05:16:29;9.00;99.90
5786;DHT22;2919;48.630;9.000;2023-04-29T05:18:55;9.00;99.90
5786;DHT22;2919;48.630;9.000;2023-04-29T05:21:21;9.20;99.90
5786;DHT22;2919;48.630;9.000;2023-04-29T05:23:46;9.30;99.90
5786;DHT22;2919;48.630;9.000;2023-04-29T05:26:12;9.40;99.90
5786;DHT22;2919;48.630;9.000;2023-04-29T05:28:37;9.60;99.90
5786;DHT22;2919;48.630;9.000;2023-04-29T05:31:03;9.70;99.90
5786;DHT22;2919;48.630;9.000;2023-04-29T05:33:29;9.70;99.90
5786;DHT22;2919;48.630;9.000;2023-04-29T05:35:54;9.80;99.90
5786;DHT22;2919;48.630;9.000;2023-04-29T05:38:20;9.90;99.90
5786;DHT22;2919;48.630;9.000;2023-04-29T05:40:46;10.00;99.90
5786;DHT22;2919;48.630;9.000;2023-04-29T05:43:14;10.00;99.90
5786;DHT22;2919;48.630;9.000;2023-04-29T05:45:39;10.20;99.90
5786;DHT22;2919;48.630;9.000;2023-04-29T05:48:05;10.20;99.90
5786;DHT22;2919;48.630;9.000;2023-04-29T05:50:31;10.20;99.90
5786;DHT22;2919;48.630;9.000;2023-04-29T05:52:56;10.30;99.90
5786;DHT22;2919;48.630;9.000;2023-04-29T05:55:23;10.30;99.90
5786;DHT22;2919;48.630;9.000;2023-04-29T05:57:49;10.40;99.90
5786;DHT22;2919;48.630;9.000;2023-04-29T06:00:14;10.50;99.90
5786;DHT22;2919;48.630;9.000;2023-04-29T06:02:40;10.50;99.90
5786;DHT22;2919;48.630;9.000;2023-04-29T06:05:07;10.70;99.90
5786;DHT22;2919;48.630;9.000;2023-04-29T06:07:33;10.60;99.90
5786;DHT22;2919;48.630;9.000;2023-04-29T06:09:59;10.70;99.90
5786;DHT22;2919;48.630;9.000;2023-04-29T06:12:24;10.70;99.90
5786;DHT22;2919;48.630;9.000;2023-04-29T06:14:50;10.80;99.90
5786;DHT22;2919;48.630;9.000;2023-04-29T06:17:15;10.90;99.90
5786;DHT22;2919;48.630;9.000;2023-04-29T06:19:41;11.00;99.90
5786;DHT22;2919;48.630;9.000;2023-04-29T06:22:07;11.00;99.90
5786;DHT22;2919;48.630;9.000;2023-04-29T06:24:32;11.20;99.90
5786;DHT22;2919;48.630;9.000;2023-04-29T06:26:58;11.30;99.90
5786;DHT22;2919;48.630;9.000;2023-04-29T06:29:23;11.50;99.90
5786;DHT22;2919;48.630;9.000;2023-04-29T06:31:49;11.60;99.90
5786;DHT22;2919;48.630;9.000;2023-04-29T06:34:15;11.80;99.90
5786;DHT22;2919;48.630;9.000;2023-04-29T06:36:40;11.80;99.90
5786;DHT22;2919;48.630;9.000;2023-04-29T06:39:06;11.90;99.90
5786;DHT22;2919;48.630;9.000;2023-04-29T06:41:32;12.10;99.90
5786;DHT22;2919;48.630;9.000;2023-04-29T06:43:58;12.20;99.90
5786;DHT22;2919;48.630;9.000;2023-04-29T06:46:24;12.20;99.90
5786;DHT22;2919;48.630;9.000;2023-04-29T06:48:49;12.40;99.90
5786;DHT22;2919;48.630;9.000;2023-04-29T06:51:15;12.40;99.90
5786;DHT22;2919;48.630;9.000;2023-04-29T06:53:40;12.40;99.90
5786;DHT22;2919;48.630;9.000;2023-04-29T06:56:06;12.60;99.90
5786;DHT22;2919;48.630;9.000;2023-04-29T06:58:32;12.60;99.90
5786;DHT22;2919;48.630;9.000;2023-04-29T07:00:57;12.60;99.90
5786;DHT22;2919;48.630;9.000;2023-04-29T07:03:23;12.90;99.90
5786;DHT22;2919;48.630;9.000;2023-04-29T07:05:49;13.00;99.90
5786;DHT22;2919;48.630;9.000;2023-04-29T07:08:14;13.00;99.90
5786;DHT22;2919;48.630;9.000;2023-04-29T07:10:40;12.80;99.90
5786;DHT22;2919;48.630;9.000;2023-04-29T07:13:06;12.70;99.90
5786;DHT22;2919;48.630;9.000;2023-04-29T07:15:35;12.70;99.90
5786;DHT22;2919;48.630;9.000;2023-04-29T07:18:03;12.80;99.90
5786;DHT22;2919;48.630;9.000;2023-04-29T07:20:29;13.30;99.90
5786;DHT22;2919;48.630;9.000;2023-04-29T07:22:55;13.70;99.90
5786;DHT22;2919;48.630;9.000;2023-04-29T07:25:21;14.10;99.90
5786;DHT22;2919;48.630;9.000;2023-04-29T07:27:47;14.50;99.90
5786;DHT22;2919;48.630;9.000;2023-04-29T07:30:13;15.30;99.90
5786;DHT22;2919;48.630;9.000;2023-04-29T07:32:38;15.60;99.90
5786;DHT22;2919;48.630;9.000;2023-04-29T07:35:04;15.40;99.90
5786;DHT22;2919;48.630;9.000;2023-04-29T07:37:30;15.10;99.90
5786;DHT22;2919;48.630;9.000;2023-04-29T07:39:56;14.80;99.90
5786;DHT22;2919;48.630;9.000;2023-04-29T07:42:21;14.40;99.90
5786;DHT22;2919;48.630;9.000;2023-04-29T07:44:47;14.60;99.90
5786;DHT22;2919;48.630;9.000;2023-04-29T07:47:12;14.60;99.90
5786;DHT22;2919;48.630;9.000;2023-04-29T07:49:38;14.60;99.90
5786;DHT22;2919;48.630;9.000;2023-04-29T07:52:04;14.50;99.90
5786;DHT22;2919;48.630;9.000;2023-04-29T07:54:30;14.60;99.90
5786;DHT22;2919;48.630;9.000;2023-04-29T07:56:59;14.30;99.90
5786;DHT22;2919;48.630;9.000;2023-04-29T07:59:25;14.20;99.90
5786;DHT22;2919;48.630;9.000;2023-04-29T08:01:51;14.10;99.90
5786;DHT22;2919;48.630;9.000;2023-04-29T08:04:17;14.00;99.90
5786;DHT22;2919;48.630;9.000;2023-04-29T08:06:43;14.50;99.90
5786;DHT22;2919;48.630;9.000;2023-04-29T08:09:09;15.80;99.90
5786;DHT22;2919;48.630;9.000;2023-04-29T08:11:35;17.10;99.90
5786;DHT22;2919;48.630;9.000;2023-04-29T08:14:01;17.80;98.50
5786;DHT22;2919;48.630;9.000;2023-04-29T08:16:26;17.70;97.00
5786;DHT22;2919;48.630;9.000;2023-04-29T08:18:53;17.40;98.40
5786;DHT22;2919;48.630;9.000;2023-04-29T08:21:18;16.90;98.70
5786;DHT22;2919;48.630;9.000;2023-04-29T08:23:44;16.40;99.30
5786;DHT22;2919;48.630;9.000;2023-04-29T08:26:10;16.00;99.50
5786;DHT22;2919;48.630;9.000;2023-04-29T08:28:37;15.50;99.90
5786;DHT22;2919;48.630;9.000;2023-04-29T08:31:03;15.40;99.90
5786;DHT22;2919;48.630;9.000;2023-04-29T08:33:34;15.20;99.90
5786;DHT22;2919;48.630;9.000;2023-04-29T08:36:01;15.20;99.90
5786;DHT22;2919;48.630;9.000;2023-04-29T08:38:28;15.20;99.90
5786;DHT22;2919;48.630;9.000;2023-04-29T08:40:54;15.20;99.90
5786;DHT22;2919;48.630;9.000;2023-04-29T08:43:21;15.10;99.90
5786;DHT22;2919;48.630;9.000;2023-04-29T08:45:48;15.00;99.90
5786;DHT22;2919;48.630;9.000;2023-04-29T08:48:15;15.10;99.90
5786;DHT22;2919;48.630;9.000;2023-04-29T08:50:42;15.20;99.90
5786;DHT22;2919;48.630;9.000;2023-04-29T08:53:09;15.20;99.90
5786;DHT22;2919;48.630;9.000;2023-04-29T08:55:45;15.40;99.90
5786;DHT22;2919;48.630;9.000;2023-04-29T08:58:14;15.90;99.90
5786;DHT22;2919;48.630;9.000;2023-04-29T09:00:41;16.40;99.90
5786;DHT22;2919;48.630;9.000;2023-04-29T09:03:16;16.90;99.40
5786;DHT22;2919;48.630;9.000;2023-04-29T09:05:45;16.90;98.80
5786;DHT22;2919;48.630;9.000;2023-04-29T09:08:11;17.30;99.50
5786;DHT22;2919;48.630;9.000;2023-04-29T09:10:46;17.60;98.30
5786;DHT22;2919;48.630;9.000;2023-04-29T09:13:28;17.10;98.60
5786;DHT22;2919;48.630;9.000;2023-04-29T09:15:54;16.70;98.60
5786;DHT22;2919;48.630;9.000;2023-04-29T09:18:46;16.50;99.80
5786;DHT22;2919;48.630;9.000;2023-04-29T09:23:38;16.70;99.90
5786;DHT22;2919;48.630;9.000;2023-04-29T09:26:04;16.80;98.40
5786;DHT22;2919;48.630;9.000;2023-04-29T09:28:29;16.70;98.60
5786;DHT22;2919;48.630;9.000;2023-04-29T09:30:55;16.70;98.70
5786;DHT22;2919;48.630;9.000;2023-04-29T09:33:20;16.80;99.90
5786;DHT22;2919;48.630;9.000;2023-04-29T09:35:46;16.60;99.90
5786;DHT22;2919;48.630;9.000;2023-04-29T09:38:15;16.20;99.90
5786;DHT22;2919;48.630;9.000;2023-04-29T09:40:42;16.10;99.90
5786;DHT22;2919;48.630;9.000;2023-04-29T09:43:17;16.10;99.90
5786;DHT22;2919;48.630;9.000;2023-04-29T09:45:47;16.40;99.90
5786;DHT22;2919;48.630;9.000;2023-04-29T09:48:14;16.70;99.70
5786;DHT22;2919;48.630;9.000;2023-04-29T09:50:42;16.70;99.90
5786;DHT22;2919;48.630;9.000;2023-04-29T09:53:27;16.30;99.90
5786;DHT22;2919;48.630;9.000;2023-04-29T10:00:58;15.60;99.90
5786;DHT22;2919;48.630;9.000;2023-04-29T10:03:27;15.50;99.90
5786;DHT22;2919;48.630;9.000;2023-04-29T10:05:57;15.30;99.90
5786;DHT22;2919;48.630;9.000;2023-04-29T10:08:23;15.30;99.90
5786;DHT22;2919;48.630;9.000;2023-04-29T10:10:49;15.50;99.90
5786;DHT22;2919;48.630;9.000;2023-04-29T10:13:23;15.70;99.90
5786;DHT22;2919;48.630;9.000;2023-04-29T10:15:55;15.80;99.90
5786;DHT22;2919;48.630;9.000;2023-04-29T10:18:29;16.00;99.90
5786;DHT22;2919;48.630;9.000;2023-04-29T10:20:56;16.10;99.90
5786;DHT22;2919;48.630;9.000;2023-04-29T10:23:24;15.90;99.90
5786;DHT22;2919;48.630;9.000;2023-04-29T10:25:52;16.00;99.90
5786;DHT22;2919;48.630;9.000;2023-04-29T10:28:18;16.00;99.90
5786;DHT22;2919;48.630;9.000;2023-04-29T10:30:45;16.00;99.90
5786;DHT22;2919;48.630;9.000;2023-04-29T10:33:15;15.90;99.90
5786;DHT22;2919;48.630;9.000;2023-04-29T10:35:42;16.00;99.90
5786;DHT22;2919;48.630;9.000;2023-04-29T10:38:19;15.90;99.90
5786;DHT22;2919;48.630;9.000;2023-04-29T10:40:46;15.90;99.90
5786;DHT22;2919;48.630;9.000;2023-04-29T10:43:14;16.20;99.90
5786;DHT22;2919;48.630;9.000;2023-04-29T10:45:40;16.40;99.90
5786;DHT22;2919;48.630;9.000;2023-04-29T10:48:10;16.70;99.90
5786;DHT22;2919;48.630;9.000;2023-04-29T10:53:12;16.70;99.80
5786;DHT22;2919;48.630;9.000;2023-04-29T10:55:39;16.90;98.60
5786;DHT22;2919;48.630;9.000;2023-04-29T10:58:05;16.70;99.00
5786;DHT22;2919;48.630;9.000;2023-04-29T11:00:52;16.50;98.90
5786;DHT22;2919;48.630;9.000;2023-04-29T11:03:44;16.50;99.40
5786;DHT22;2919;48.630;9.000;2023-04-29T11:06:10;16.70;98.40
5786;DHT22;2919;48.630;9.000;2023-04-29T11:08:36;16.40;98.60
5786;DHT22;2919;48.630;9.000;2023-04-29T11:11:05;16.20;98.30
5786;DHT22;2919;48.630;9.000;2023-04-29T11:13:38;16.10;99.70
5786;DHT22;2919;48.630;9.000;2023-04-29T11:16:08;16.10;99.40
5786;DHT22;2919;48.630;9.000;2023-04-29T11:21:21;16.20;99.20
5786;DHT22;2919;48.630;9.000;2023-04-29T11:23:49;16.50;98.80
5786;DHT22;2919;48.630;9.000;2023-04-29T11:26:18;16.60;98.00
5786;DHT22;2919;48.630;9.000;2023-04-29T11:28:44;16.30;99.90
5786;DHT22;2919;48.630;9.000;2023-04-29T11:31:11;16.20;99.70
5786;DHT22;2919;48.630;9.000;2023-04-29T11:33:36;16.10;99.30
5786;DHT22;2919;48.630;9.000;2023-04-29T11:36:02;16.20;98.50
5786;DHT22;2919;48.630;9.000;2023-04-29T11:38:29;16.20;99.60
5786;DHT22;2919;48.630;9.000;2023-04-29T11:40:56;16.30;98.90
5786;DHT22;2919;48.630;9.000;2023-04-29T11:43:23;16.40;99.00
5786;DHT22;2919;48.630;9.000;2023-04-29T11:45:49;16.50;99.60
5786;DHT22;2919;48.630;9.000;2023-04-29T11:48:23;16.70;97.50
5786;DHT22;2919;48.630;9.000;2023-04-29T11:50:51;16.50;97.70
5786;DHT22;2919;48.630;9.000;2023-04-29T11:53:22;16.40;98.50
5786;DHT22;2919;48.630;9.000;2023-04-29T11:55:51;16.30;98.60
5786;DHT22;2919;48.630;9.000;2023-04-29T11:58:20;16.50;99.10
5786;DHT22;2919;48.630;9.000;2023-04-29T12:00:49;16.70;97.80
5786;DHT22;2919;48.630;9.000;2023-04-29T12:03:16;16.90;97.60
5786;DHT22;2919;48.630;9.000;2023-04-29T12:05:52;16.90;96.80
5786;DHT22;2919;48.630;9.000;2023-04-29T12:08:19;16.70;96.70
5786;DHT22;2919;48.630;9.000;2023-04-29T12:10:47;16.60;97.30
5786;DHT22;2919;48.630;9.000;2023-04-29T12:13:13;16.50;97.30
5786;DHT22;2919;48.630;9.000;2023-04-29T12:15:40;16.20;97.30
5786;DHT22;2919;48.630;9.000;2023-04-29T12:18:06;16.10;97.20
5786;DHT22;2919;48.630;9.000;2023-04-29T12:20:32;16.20;97.00
5786;DHT22;2919;48.630;9.000;2023-04-29T12:25:36;16.10;97.10
5786;DHT22;2919;48.630;9.000;2023-04-29T12:28:02;16.40;97.00
5786;DHT22;2919;48.630;9.000;2023-04-29T12:30:28;16.60;96.60
5786;DHT22;2919;48.630;9.000;2023-04-29T12:32:54;16.80;97.00
5786;DHT22;2919;48.630;9.000;2023-04-29T12:35:20;17.00;96.50
5786;DHT22;2919;48.630;9.000;2023-04-29T12:37:49;17.20;95.90
5786;DHT22;2919;48.630;9.000;2023-04-29T12:40:15;17.30;96.40
5786;DHT22;2919;48.630;9.000;2023-04-29T12:42:42;17.20;95.80
5786;DHT22;2919;48.630;9.000;2023-04-29T12:45:25;16.90;94.80
5786;DHT22;2919;48.630;9.000;2023-04-29T12:47:50;16.60;95.30
5786;DHT22;2919;48.630;9.000;2023-04-29T12:50:16;16.40;95.10
5786;DHT22;2919;48.630;9.000;2023-04-29T12:52:42;16.30;96.20
5786;DHT22;2919;48.630;9.000;2023-04-29T12:55:08;16.40;95.10
5786;DHT22;2919;48.630;9.000;2023-04-29T12:57:33;16.50;95.20
5786;DHT22;2919;48.630;9.000;2023-04-29T12:59:59;16.70;94.70
5786;DHT22;2919;48.630;9.000;2023-04-29T13:02:24;16.90;95.20
5786;DHT22;2919;48.630;9.000;2023-04-29T13:04:50;16.90;94.40
5786;DHT22;2919;48.630;9.000;2023-04-29T13:07:16;16.90;93.50
5786;DHT22;2919;48.630;9.000;2023-04-29T13:09:42;16.90;93.50
5786;DHT22;2919;48.630;9.000;2023-04-29T13:12:08;17.00;94.70
5786;DHT22;2919;48.630;9.000;2023-04-29T13:14:33;17.10;97.90
5786;DHT22;2919;48.630;9.000;2023-04-29T13:16:59;17.30;96.30
5786;DHT22;2919;48.630;9.000;2023-04-29T13:19:24;17.20;96.90
5786;DHT22;2919;48.630;9.000;2023-04-29T13:21:50;17.10;97.60
5786;DHT22;2919;48.630;9.000;2023-04-29T13:24:16;16.90;97.40
5786;DHT22;2919;48.630;9.000;2023-04-29T13:26:44;16.60;97.90
5786;DHT22;2919;48.630;9.000;2023-04-29T13:29:09;16.70;98.60
5786;DHT22;2919;48.630;9.000;2023-04-29T13:31:35;16.70;98.60
5786;DHT22;2919;48.630;9.000;2023-04-29T13:34:01;16.80;99.00
5786;DHT22;2919;48.630;9.000;2023-04-29T13:36:27;17.20;97.90
5786;DHT22;2919;48.630;9.000;2023-04-29T13:38:53;17.00;97.90
5786;DHT22;2919;48.630;9.000;2023-04-29T13:41:18;16.90;97.70
5786;DHT22;2919;48.630;9.000;2023-04-29T13:43:44;16.60;98.80
5786;DHT22;2919;48.630;9.000;2023-04-29T13:46:09;16.70;98.10
5786;DHT22;2919;48.630;9.000;2023-04-29T13:48:35;16.40;98.50
5786;DHT22;2919;48.630;9.000;2023-04-29T13:51:01;16.50;98.00
5786;DHT22;2919;48.630;9.000;2023-04-29T13:53:26;16.70;97.90
5786;DHT22;2919;48.630;9.000;2023-04-29T13:55:52;16.70;97.90
5786;DHT22;2919;48.630;9.000;2023-04-29T13:58:17;16.60;98.60
5786;DHT22;2919;48.630;9.000;2023-04-29T14:00:43;16.50;99.30
5786;DHT22;2919;48.630;9.000;2023-04-29T14:03:09;16.40;98.70
5786;DHT22;2919;48.630;9.000;2023-04-29T14:05:34;16.10;99.30
5786;DHT22;2919;48.630;9.000;2023-04-29T14:08:00;16.30;99.50
5786;DHT22;2919;48.630;9.000;2023-04-29T14:10:25;16.40;99.90
5786;DHT22;2919;48.630;9.000;2023-04-29T14:12:51;16.60;99.00
5786;DHT22;2919;48.630;9.000;2023-04-29T14:15:17;16.60;99.40
5786;DHT22;2919;48.630;9.000;2023-04-29T14:17:42;16.60;99.20
5786;DHT22;2919;48.630;9.000;2023-04-29T14:20:09;16.30;98.50
5786;DHT22;2919;48.630;9.000;2023-04-29T14:22:34;16.10;98.90
5786;DHT22;2919;48.630;9.000;2023-04-29T14:25:00;16.10;99.00
5786;DHT22;2919;48.630;9.000;2023-04-29T14:27:25;16.10;99.50
5786;DHT22;2919;48.630;9.000;2023-04-29T14:29:51;16.20;98.90
5786;DHT22;2919;48.630;9.000;2023-04-29T14:32:17;16.00;99.00
5786;DHT22;2919;48.630;9.000;2023-04-29T14:34:42;16.10;99.60
5786;DHT22;2919;48.630;9.000;2023-04-29T14:37:08;16.10;99.90
5786;DHT22;2919;48.630;9.000;2023-04-29T14:39:33;15.90;99.10
5786;DHT22;2919;48.630;9.000;2023-04-29T14:41:59;15.90;99.80
5786;DHT22;2919;48.630;9.000;2023-04-29T14:44:26;16.10;98.70
5786;DHT22;2919;48.630;9.000;2023-04-29T14:46:51;16.00;99.10
5786;DHT22;2919;48.630;9.000;2023-04-29T14:49:17;15.70;99.50
5786;DHT22;2919;48.630;9.000;2023-04-29T14:51:43;15.60;99.50
5786;DHT22;2919;48.630;9.000;2023-04-29T14:54:08;15.60;99.90
5786;DHT22;2919;48.630;9.000;2023-04-29T14:56:35;15.60;99.90
5786;DHT22;2919;48.630;9.000;2023-04-29T14:59:02;15.80;99.90
5786;DHT22;2919;48.630;9.000;2023-04-29T15:01:27;15.90;99.70
5786;DHT22;2919;48.630;9.000;2023-04-29T15:03:53;15.80;99.40
5786;DHT22;2919;48.630;9.000;2023-04-29T15:06:19;15.70;99.90
5786;DHT22;2919;48.630;9.000;2023-04-29T15:08:44;15.50;99.90
5786;DHT22;2919;48.630;9.000;2023-04-29T15:11:11;15.60;99.90
5786;DHT22;2919;48.630;9.000;2023-04-29T15:13:36;15.60;99.90
5786;DHT22;2919;48.630;9.000;2023-04-29T15:16:03;15.60;99.90
5786;DHT22;2919;48.630;9.000;2023-04-29T15:18:28;15.50;99.90
5786;DHT22;2919;48.630;9.000;2023-04-29T15:20:54;15.30;99.90
5786;DHT22;2919;48.630;9.000;2023-04-29T15:23:20;15.20;99.90
5786;DHT22;2919;48.630;9.000;2023-04-29T15:25:45;15.30;99.90
5786;DHT22;2919;48.630;9.000;2023-04-29T15:28:11;15.20;99.90
5786;DHT22;2919;48.630;9.000;2023-04-29T15:30:36;15.10;99.60
5786;DHT22;2919;48.630;9.000;2023-04-29T15:33:02;15.10;99.90
5786;DHT22;2919;48.630;9.000;2023-04-29T15:35:28;15.10;99.90
5786;DHT22;2919;48.630;9.000;2023-04-29T15:37:54;15.00;99.90
5786;DHT22;2919;48.630;9.000;2023-04-29T15:40:20;14.80;99.90
5786;DHT22;2919;48.630;9.000;2023-04-29T15:42:46;14.70;99.90
5786;DHT22;2919;48.630;9.000;2023-04-29T15:45:12;14.60;99.90
5786;DHT22;2919;48.630;9.000;2023-04-29T15:47:38;14.50;99.90
5786;DHT22;2919;48.630;9.000;2023-04-29T15:50:03;14.60;99.90
5786;DHT22;2919;48.630;9.000;2023-04-29T15:52:29;14.70;99.90
5786;DHT22;2919;48.630;9.000;2023-04-29T15:54:55;14.60;99.90
5786;DHT22;2919;48.630;9.000;2023-04-29T15:57:20;14.40;99.90
5786;DHT22;2919;48.630;9.000;2023-04-29T15:59:46;14.30;99.90
5786;DHT22;2919;48.630;9.000;2023-04-29T16:02:11;14.10;99.90
5786;DHT22;2919;48.630;9.000;2023-04-29T16:04:39;14.00;99.90
5786;DHT22;2919;48.630;9.000;2023-04-29T16:07:05;13.80;99.90
5786;DHT22;2919;48.630;9.000;2023-04-29T16:09:34;13.60;99.90
5786;DHT22;2919;48.630;9.000;2023-04-29T16:12:00;13.60;99.90
5786;DHT22;2919;48.630;9.000;2023-04-29T16:14:26;13.60;99.90
5786;DHT22;2919;48.630;9.000;2023-04-29T16:16:52;13.70;99.90
5786;DHT22;2919;48.630;9.000;2023-04-29T16:19:18;13.70;99.90
5786;DHT22;2919;48.630;9.000;2023-04-29T16:21:43;13.70;99.90
5786;DHT22;2919;48.630;9.000;2023-04-29T16:24:10;13.70;99.90
5786;DHT22;2919;48.630;9.000;2023-04-29T16:26:36;13.80;99.90
5786;DHT22;2919;48.630;9.000;2023-04-29T16:29:04;13.70;99.90
5786;DHT22;2919;48.630;9.000;2023-04-29T16:31:30;13.60;99.90
5786;DHT22;2919;48.630;9.000;2023-04-29T16:33:56;13.60;99.90